sensor_id;sensor_type;location;lat;lon;timestamp;temperature;humidity
44775;DHT22;31340;51.402;0.016;2022-12-10T00:01:37;0.60;99.90
44775;DHT22;31340;51.402;0.016;2022-12-10T00:04:05;0.60;99.90
44775;DHT22;31340;51.402;0.016;2022-12-10T00:06:34;0.60;99.90
44775;DHT22;31340;51.402;0.016;2022-12-10T00:09:04;0.60;99.90
44775;DHT22;31340;51.402;0.016;2022-12-10T00:11:32;0.60;99.90
44775;DHT22;31340;51.402;0.016;2022-12-10T00:14:00;0.60;99.90
44775;DHT22;31340;51.402;0.016;2022-12-10T00:16:29;0.60;99.90
44775;DHT22;31340;51.402;0.016;2022-12-10T00:18:57;0.60;99.90
44775;DHT22;31340;51.402;0.016;2022-12-10T00:21:27;0.60;99.90
44775;DHT22;31340;51.402;0.016;2022-12-10T00:23:56;0.60;99.90
44775;DHT22;31340;51.402;0.016;2022-12-10T00:26:28;0.60;99.90
44775;DHT22;31340;51.402;0.016;2022-12-10T00:28:56;0.50;99.90
44775;DHT22;31340;51.402;0.016;2022-12-10T00:31:27;0.50;99.90
44775;DHT22;31340;51.402;0.016;2022-12-10T00:33:57;0.50;99.90
44775;DHT22;31340;51.402;0.016;2022-12-10T00:36:28;0.50;99.90
44775;DHT22;31340;51.402;0.016;2022-12-10T00:38:56;0.60;99.90
44775;DHT22;31340;51.402;0.016;2022-12-10T00:41:27;0.60;99.90
44775;DHT22;31340;51.402;0.016;2022-12-10T00:43:55;0.50;99.90
44775;DHT22;31340;51.402;0.016;2022-12-10T00:46:22;0.50;99.90
44775;DHT22;31340;51.402;0.016;2022-12-10T00:48:50;0.50;99.90
44775;DHT22;31340;51.402;0.016;2022-12-10T00:51:19;0.40;99.90
44775;DHT22;31340;51.402;0.016;2022-12-10T00:53:47;0.40;99.90
44775;DHT22;31340;51.402;0.016;2022-12-10T00:56:16;0.40;99.90
44775;DHT22;31340;51.402;0.016;2022-12-10T00:58:43;0.30;99.90
44775;DHT22;31340;51.402;0.016;2022-12-10T01:03:46;0.30;99.90
44775;DHT22;31340;51.402;0.016;2022-12-10T01:06:14;0.30;99.90
44775;DHT22;31340;51.402;0.016;2022-12-10T01:08:42;0.30;99.90
44775;DHT22;31340;51.402;0.016;2022-12-10T01:11:10;0.30;99.90
44775;DHT22;31340;51.402;0.016;2022-12-10T01:13:39;0.30;99.90
44775;DHT22;31340;51.402;0.016;2022-12-10T01:16:07;0.30;99.90
44775;DHT22;31340;51.402;0.016;2022-12-10T01:18:35;0.30;99.90
44775;DHT22;31340;51.402;0.016;2022-12-10T01:21:03;0.30;99.90
44775;DHT22;31340;51.402;0.016;2022-12-10T01:23:31;0.20;99.90
44775;DHT22;31340;51.402;0.016;2022-12-10T01:26:00;0.30;99.90
44775;DHT22;31340;51.402;0.016;2022-12-10T01:28:28;0.30;99.90
44775;DHT22;31340;51.402;0.016;2022-12-10T01:30:59;0.20;99.90
44775;DHT22;31340;51.402;0.016;2022-12-10T01:33:26;0.20;99.90
44775;DHT22;31340;51.402;0.016;2022-12-10T01:35:53;0.20;99.90
44775;DHT22;31340;51.402;0.016;2022-12-10T01:38:21;0.20;99.90
44775;DHT22;31340;51.402;0.016;2022-12-10T01:40:49;0.20;99.90
44775;DHT22;31340;51.402;0.016;2022-12-10T01:43:16;0.20;99.90
44775;DHT22;31340;51.402;0.016;2022-12-10T01:45:43;0.20;99.90
44775;DHT22;31340;51.402;0.016;2022-12-10T01:48:11;0.20;99.90
44775;DHT22;31340;51.402;0.016;2022-12-10T01:50:38;0.20;99.90
44775;DHT22;31340;51.402;0.016;2022-12-10T01:53:06;0.10;99.90
44775;DHT22;31340;51.402;0.016;2022-12-10T01:55:42;0.10;99.90
44775;DHT22;31340;51.402;0.016;2022-12-10T01:58:13;0.20;99.90
44775;DHT22;31340;51.402;0.016;2022-12-10T02:00:43;0.10;99.90
44775;DHT22;31340;51.402;0.016;2022-12-10T02:03:17;0.10;99.90
44775;DHT22;31340;51.402;0.016;2022-12-10T02:05:51;0.20;99.90
44775;DHT22;31340;51.402;0.016;2022-12-10T02:08:25;0.10;99.90
44775;DHT22;31340;51.402;0.016;2022-12-10T02:11:13;0.10;99.90
44775;DHT22;31340;51.402;0.016;2022-12-10T02:16:26;0.10;99.90
44775;DHT22;31340;51.402;0.016;2022-12-10T02:18:58;0.10;99.90
44775;DHT22;31340;51.402;0.016;2022-12-10T02:21:29;0.10;99.90
44775;DHT22;31340;51.402;0.016;2022-12-10T02:23:59;0.10;99.90
44775;DHT22;31340;51.402;0.016;2022-12-10T02:29:20;0.10;99.90
44775;DHT22;31340;51.402;0.016;2022-12-10T02:32:11;0.10;99.90
44775;DHT22;31340;51.402;0.016;2022-12-10T02:34:43;0.10;99.90
44775;DHT22;31340;51.402;0.016;2022-12-10T02:37:18;0.10;99.90
44775;DHT22;31340;51.402;0.016;2022-12-10T02:39:52;0.10;99.90
44775;DHT22;31340;51.402;0.016;2022-12-10T02:42:20;0.10;99.90
44775;DHT22;31340;51.402;0.016;2022-12-10T02:44:49;0.00;99.90
44775;DHT22;31340;51.402;0.016;2022-12-10T02:47:20;0.10;99.90
44775;DHT22;31340;51.402;0.016;2022-12-10T02:49:50;0.00;99.90
44775;DHT22;31340;51.402;0.016;2022-12-10T02:52:18;0.00;99.90
44775;DHT22;31340;51.402;0.016;2022-12-10T02:54:49;0.00;99.90
44775;DHT22;31340;51.402;0.016;2022-12-10T03:07:23;-0.10;99.90
44775;DHT22;31340;51.402;0.016;2022-12-10T03:09:53;-0.10;99.90
44775;DHT22;31340;51.402;0.016;2022-12-10T03:12:24;0.00;99.90
44775;DHT22;31340;51.402;0.016;2022-12-10T03:14:56;-0.10;99.90
44775;DHT22;31340;51.402;0.016;2022-12-10T03:17:25;-0.10;99.90
44775;DHT22;31340;51.402;0.016;2022-12-10T03:19:53;-0.10;99.90
44775;DHT22;31340;51.402;0.016;2022-12-10T03:22:22;-0.10;99.90
44775;DHT22;31340;51.402;0.016;2022-12-10T03:24:49;-0.10;99.90
44775;DHT22;31340;51.402;0.016;2022-12-10T03:27:17;-0.20;99.90
44775;DHT22;31340;51.402;0.016;2022-12-10T03:29:47;-0.10;99.90
44775;DHT22;31340;51.402;0.016;2022-12-10T03:32:15;-0.20;99.90
44775;DHT22;31340;51.402;0.016;2022-12-10T03:34:43;-0.20;99.90
44775;DHT22;31340;51.402;0.016;2022-12-10T03:37:11;-0.20;99.90
44775;DHT22;31340;51.402;0.016;2022-12-10T03:39:40;-0.20;99.90
44775;DHT22;31340;51.402;0.016;2022-12-10T03:42:08;-0.20;99.90
44775;DHT22;31340;51.402;0.016;2022-12-10T03:44:36;-0.20;99.90
44775;DHT22;31340;51.402;0.016;2022-12-10T03:47:05;-0.20;99.90
44775;DHT22;31340;51.402;0.016;2022-12-10T03:49:32;-0.20;99.90
44775;DHT22;31340;51.402;0.016;2022-12-10T03:52:00;-0.20;99.90
44775;DHT22;31340;51.402;0.016;2022-12-10T03:54:27;-0.20;99.90
44775;DHT22;31340;51.402;0.016;2022-12-10T03:56:54;-0.20;99.90
44775;DHT22;31340;51.402;0.016;2022-12-10T03:59:21;-0.30;99.90
44775;DHT22;31340;51.402;0.016;2022-12-10T04:01:49;-0.20;99.90
44775;DHT22;31340;51.402;0.016;2022-12-10T04:04:16;-0.20;99.90
44775;DHT22;31340;51.402;0.016;2022-12-10T04:06:43;-0.30;99.90
44775;DHT22;31340;51.402;0.016;2022-12-10T04:09:12;-0.30;99.90
44775;DHT22;31340;51.402;0.016;2022-12-10T04:11:41;-0.30;99.90
44775;DHT22;31340;51.402;0.016;2022-12-10T04:14:09;-0.30;99.90
44775;DHT22;31340;51.402;0.016;2022-12-10T04:16:54;-0.30;99.90
44775;DHT22;31340;51.402;0.016;2022-12-10T04:19:22;-0.30;99.90
44775;DHT22;31340;51.402;0.016;2022-12-10T04:21:49;-0.30;99.90
44775;DHT22;31340;51.402;0.016;2022-12-10T04:24:36;-0.40;99.90
44775;DHT22;31340;51.402;0.016;2022-12-10T04:29:53;-0.40;99.90
44775;DHT22;31340;51.402;0.016;2022-12-10T04:32:21;-0.40;99.90
44775;DHT22;31340;51.402;0.016;2022-12-10T04:34:49;-0.40;99.90
44775;DHT22;31340;51.402;0.016;2022-12-10T04:37:19;-0.40;99.90
44775;DHT22;31340;51.402;0.016;2022-12-10T04:39:46;-0.40;99.90
44775;DHT22;31340;51.402;0.016;2022-12-10T04:42:13;-0.40;99.90
44775;DHT22;31340;51.402;0.016;2022-12-10T04:44:41;-0.50;99.90
44775;DHT22;31340;51.402;0.016;2022-12-10T04:47:09;-0.50;99.90
44775;DHT22;31340;51.402;0.016;2022-12-10T04:49:37;-0.50;99.90
44775;DHT22;31340;51.402;0.016;2022-12-10T04:52:05;-0.40;99.90
44775;DHT22;31340;51.402;0.016;2022-12-10T04:54:33;-0.50;99.90
44775;DHT22;31340;51.402;0.016;2022-12-10T04:57:05;-0.50;99.90
44775;DHT22;31340;51.402;0.016;2022-12-10T04:59:33;-0.50;99.90
44775;DHT22;31340;51.402;0.016;2022-12-10T05:02:00;-0.50;99.90
44775;DHT22;31340;51.402;0.016;2022-12-10T05:04:27;-0.70;99.90
44775;DHT22;31340;51.402;0.016;2022-12-10T05:06:55;-0.50;99.90
44775;DHT22;31340;51.402;0.016;2022-12-10T05:09:25;-0.50;99.90
44775;DHT22;31340;51.402;0.016;2022-12-10T05:11:52;-0.50;99.90
44775;DHT22;31340;51.402;0.016;2022-12-10T05:14:19;-0.50;99.90
44775;DHT22;31340;51.402;0.016;2022-12-10T05:16:48;-0.60;99.90
44775;DHT22;31340;51.402;0.016;2022-12-10T05:19:16;-0.60;99.90
44775;DHT22;31340;51.402;0.016;2022-12-10T05:21:46;-0.60;99.90
44775;DHT22;31340;51.402;0.016;2022-12-10T05:24:32;-0.60;99.90
44775;DHT22;31340;51.402;0.016;2022-12-10T05:27:00;-0.60;99.90
44775;DHT22;31340;51.402;0.016;2022-12-10T05:29:27;-0.60;99.90
44775;DHT22;31340;51.402;0.016;2022-12-10T05:31:54;-0.60;99.90
44775;DHT22;31340;51.402;0.016;2022-12-10T05:34:21;-0.60;99.90
44775;DHT22;31340;51.402;0.016;2022-12-10T05:36:49;-0.60;99.90
44775;DHT22;31340;51.402;0.016;2022-12-10T05:39:17;-0.60;99.90
44775;DHT22;31340;51.402;0.016;2022-12-10T05:41:45;-0.60;99.90
44775;DHT22;31340;51.402;0.016;2022-12-10T05:44:13;-0.60;99.90
44775;DHT22;31340;51.402;0.016;2022-12-10T05:46:40;-0.60;99.90
44775;DHT22;31340;51.402;0.016;2022-12-10T05:49:07;-0.60;99.90
44775;DHT22;31340;51.402;0.016;2022-12-10T05:51:35;-0.60;99.90
44775;DHT22;31340;51.402;0.016;2022-12-10T05:54:05;-0.70;99.90
44775;DHT22;31340;51.402;0.016;2022-12-10T05:56:33;-0.70;99.90
44775;DHT22;31340;51.402;0.016;2022-12-10T05:59:02;-0.70;99.90
44775;DHT22;31340;51.402;0.016;2022-12-10T06:01:31;-0.70;99.90
44775;DHT22;31340;51.402;0.016;2022-12-10T06:03:59;-0.70;99.90
44775;DHT22;31340;51.402;0.016;2022-12-10T06:06:28;-0.70;99.90
44775;DHT22;31340;51.402;0.016;2022-12-10T06:08:56;-0.60;99.90
44775;DHT22;31340;51.402;0.016;2022-12-10T06:11:24;-0.70;99.90
44775;DHT22;31340;51.402;0.016;2022-12-10T06:13:52;-0.70;99.90
44775;DHT22;31340;51.402;0.016;2022-12-10T06:16:23;-0.70;99.90
44775;DHT22;31340;51.402;0.016;2022-12-10T06:18:51;-0.70;99.90
44775;DHT22;31340;51.402;0.016;2022-12-10T06:21:19;-0.70;99.90
44775;DHT22;31340;51.402;0.016;2022-12-10T06:23:46;-0.70;99.90
44775;DHT22;31340;51.402;0.016;2022-12-10T06:26:15;-0.70;99.90
44775;DHT22;31340;51.402;0.016;2022-12-10T06:28:46;-0.70;99.90
44775;DHT22;31340;51.402;0.016;2022-12-10T06:31:14;-0.70;99.90
44775;DHT22;31340;51.402;0.016;2022-12-10T06:33:42;-0.70;99.90
44775;DHT22;31340;51.402;0.016;2022-12-10T06:36:10;-0.70;99.90
44775;DHT22;31340;51.402;0.016;2022-12-10T06:38:38;-0.70;99.90
44775;DHT22;31340;51.402;0.016;2022-12-10T06:41:06;-0.70;99.90
44775;DHT22;31340;51.402;0.016;2022-12-10T06:43:34;-0.70;99.90
44775;DHT22;31340;51.402;0.016;2022-12-10T06:46:08;-0.70;99.90
44775;DHT22;31340;51.402;0.016;2022-12-10T06:48:36;-0.70;99.90
44775;DHT22;31340;51.402;0.016;2022-12-10T06:51:04;-0.70;99.90
44775;DHT22;31340;51.402;0.016;2022-12-10T06:53:32;-0.70;99.90
44775;DHT22;31340;51.402;0.016;2022-12-10T06:56:00;-0.70;99.90
44775;DHT22;31340;51.402;0.016;2022-12-10T06:58:28;-0.70;99.90
44775;DHT22;31340;51.402;0.016;2022-12-10T07:01:06;-0.80;99.90
44775;DHT22;31340;51.402;0.016;2022-12-10T07:03:34;-0.70;99.90
44775;DHT22;31340;51.402;0.016;2022-12-10T07:06:01;-0.70;99.90
44775;DHT22;31340;51.402;0.016;2022-12-10T07:08:29;-0.80;99.90
44775;DHT22;31340;51.402;0.016;2022-12-10T07:10:57;-0.70;99.90
44775;DHT22;31340;51.402;0.016;2022-12-10T07:13:24;-0.80;99.90
44775;DHT22;31340;51.402;0.016;2022-12-10T07:15:56;-0.80;99.90
44775;DHT22;31340;51.402;0.016;2022-12-10T07:18:24;-0.70;99.90
44775;DHT22;31340;51.402;0.016;2022-12-10T07:20:51;-0.70;99.90
44775;DHT22;31340;51.402;0.016;2022-12-10T07:23:19;-0.70;99.90
44775;DHT22;31340;51.402;0.016;2022-12-10T07:25:46;-0.70;99.90
44775;DHT22;31340;51.402;0.016;2022-12-10T07:28:13;-0.70;99.90
44775;DHT22;31340;51.402;0.016;2022-12-10T07:30:41;-0.70;99.90
44775;DHT22;31340;51.402;0.016;2022-12-10T07:33:08;-0.70;99.90
44775;DHT22;31340;51.402;0.016;2022-12-10T07:35:37;-0.70;99.90
44775;DHT22;31340;51.402;0.016;2022-12-10T07:38:04;-0.70;99.90
44775;DHT22;31340;51.402;0.016;2022-12-10T07:40:32;-0.70;99.90
44775;DHT22;31340;51.402;0.016;2022-12-10T07:42:59;-0.70;99.90
44775;DHT22;31340;51.402;0.016;2022-12-10T07:45:26;-0.70;99.90
44775;DHT22;31340;51.402;0.016;2022-12-10T07:47:54;-0.70;99.90
44775;DHT22;31340;51.402;0.016;2022-12-10T07:50:21;-0.70;99.90
44775;DHT22;31340;51.402;0.016;2022-12-10T07:52:49;-0.70;99.90
44775;DHT22;31340;51.402;0.016;2022-12-10T07:55:16;-0.70;99.90
44775;DHT22;31340;51.402;0.016;2022-12-10T07:57:44;-0.70;99.90
44775;DHT22;31340;51.402;0.016;2022-12-10T08:00:11;-0.70;99.90
44775;DHT22;31340;51.402;0.016;2022-12-10T08:02:40;-0.60;99.90
44775;DHT22;31340;51.402;0.016;2022-12-10T08:05:07;-0.60;99.90
44775;DHT22;31340;51.402;0.016;2022-12-10T08:07:35;-0.60;99.90
44775;DHT22;31340;51.402;0.016;2022-12-10T08:10:03;-0.60;99.90
44775;DHT22;31340;51.402;0.016;2022-12-10T08:12:30;-0.60;99.90
44775;DHT22;31340;51.402;0.016;2022-12-10T08:14:57;-0.60;99.90
44775;DHT22;31340;51.402;0.016;2022-12-10T08:17:25;-0.70;99.90
44775;DHT22;31340;51.402;0.016;2022-12-10T08:19:53;-0.60;99.90
44775;DHT22;31340;51.402;0.016;2022-12-10T08:22:21;-0.60;99.90
44775;DHT22;31340;51.402;0.016;2022-12-10T08:24:49;-0.60;99.90
44775;DHT22;31340;51.402;0.016;2022-12-10T08:27:16;-0.60;99.90
44775;DHT22;31340;51.402;0.016;2022-12-10T08:29:43;-0.60;99.90
44775;DHT22;31340;51.402;0.016;2022-12-10T08:32:11;-0.60;99.90
44775;DHT22;31340;51.402;0.016;2022-12-10T08:34:38;-0.60;99.90
44775;DHT22;31340;51.402;0.016;2022-12-10T08:37:05;-0.60;99.90
44775;DHT22;31340;51.402;0.016;2022-12-10T08:39:38;-0.60;99.90
44775;DHT22;31340;51.402;0.016;2022-12-10T08:42:07;-0.50;99.90
44775;DHT22;31340;51.402;0.016;2022-12-10T08:44:35;-0.50;99.90
44775;DHT22;31340;51.402;0.016;2022-12-10T08:47:02;-0.50;99.90
44775;DHT22;31340;51.402;0.016;2022-12-10T08:49:29;-0.40;99.90
44775;DHT22;31340;51.402;0.016;2022-12-10T08:51:57;0.20;99.90
44775;DHT22;31340;51.402;0.016;2022-12-10T08:54:24;-0.40;99.90
44775;DHT22;31340;51.402;0.016;2022-12-10T08:56:51;-0.30;99.90
44775;DHT22;31340;51.402;0.016;2022-12-10T08:59:19;-0.30;99.90
44775;DHT22;31340;51.402;0.016;2022-12-10T09:01:46;-0.20;99.90
44775;DHT22;31340;51.402;0.016;2022-12-10T09:04:19;-0.20;99.90
44775;DHT22;31340;51.402;0.016;2022-12-10T09:06:47;0.60;99.90
44775;DHT22;31340;51.402;0.016;2022-12-10T09:09:14;-0.10;99.90
44775;DHT22;31340;51.402;0.016;2022-12-10T09:11:41;0.00;99.90
44775;DHT22;31340;51.402;0.016;2022-12-10T09:14:09;0.10;99.90
44775;DHT22;31340;51.402;0.016;2022-12-10T09:16:36;0.10;99.90
44775;DHT22;31340;51.402;0.016;2022-12-10T09:19:04;0.20;99.90
44775;DHT22;31340;51.402;0.016;2022-12-10T09:21:31;0.30;99.90
44775;DHT22;31340;51.402;0.016;2022-12-10T09:23:59;0.40;99.90
44775;DHT22;31340;51.402;0.016;2022-12-10T09:26:26;0.40;99.90
44775;DHT22;31340;51.402;0.016;2022-12-10T09:28:54;0.50;99.90
44775;DHT22;31340;51.402;0.016;2022-12-10T09:31:21;0.60;99.90
44775;DHT22;31340;51.402;0.016;2022-12-10T09:33:50;0.70;99.90
44775;DHT22;31340;51.402;0.016;2022-12-10T09:36:18;0.80;99.90
44775;DHT22;31340;51.402;0.016;2022-12-10T09:38:46;0.80;99.90
44775;DHT22;31340;51.402;0.016;2022-12-10T09:41:20;0.90;99.90
44775;DHT22;31340;51.402;0.016;2022-12-10T09:43:58;1.00;99.90
44775;DHT22;31340;51.402;0.016;2022-12-10T09:51:31;1.40;99.90
44775;DHT22;31340;51.402;0.016;2022-12-10T09:54:00;1.50;99.90
44775;DHT22;31340;51.402;0.016;2022-12-10T09:56:30;1.70;99.90
44775;DHT22;31340;51.402;0.016;2022-12-10T09:59:00;1.80;99.90
44775;DHT22;31340;51.402;0.016;2022-12-10T10:01:28;2.00;99.90
44775;DHT22;31340;51.402;0.016;2022-12-10T10:03:56;2.10;99.90
44775;DHT22;31340;51.402;0.016;2022-12-10T10:06:25;2.20;99.90
44775;DHT22;31340;51.402;0.016;2022-12-10T10:08:54;2.40;99.90
44775;DHT22;31340;51.402;0.016;2022-12-10T10:11:24;2.50;99.90
44775;DHT22;31340;51.402;0.016;2022-12-10T10:13:52;2.60;99.90
44775;DHT22;31340;51.402;0.016;2022-12-10T10:16:25;2.80;99.90
44775;DHT22;31340;51.402;0.016;2022-12-10T10:19:03;2.90;99.90
44775;DHT22;31340;51.402;0.016;2022-12-10T10:21:33;3.00;99.90
44775;DHT22;31340;51.402;0.016;2022-12-10T10:24:02;3.20;99.90
44775;DHT22;31340;51.402;0.016;2022-12-10T10:26:37;3.30;99.90
44775;DHT22;31340;51.402;0.016;2022-12-10T10:29:06;3.40;99.90
44775;DHT22;31340;51.402;0.016;2022-12-10T10:31:34;3.50;99.90
44775;DHT22;31340;51.402;0.016;2022-12-10T10:34:03;3.60;99.90
44775;DHT22;31340;51.402;0.016;2022-12-10T10:36:32;3.80;99.90
44775;DHT22;31340;51.402;0.016;2022-12-10T10:39:10;3.90;99.90
44775;DHT22;31340;51.402;0.016;2022-12-10T10:41:39;4.00;99.90
44775;DHT22;31340;51.402;0.016;2022-12-10T10:44:16;4.10;99.90
44775;DHT22;31340;51.402;0.016;2022-12-10T10:46:46;4.20;99.90
44775;DHT22;31340;51.402;0.016;2022-12-10T10:49:18;4.30;99.90
44775;DHT22;31340;51.402;0.016;2022-12-10T10:51:48;4.40;99.90
44775;DHT22;31340;51.402;0.016;2022-12-10T10:57:00;4.60;99.90
44775;DHT22;31340;51.402;0.016;2022-12-10T10:59:32;4.80;99.90
44775;DHT22;31340;51.402;0.016;2022-12-10T11:02:02;4.80;99.90
44775;DHT22;31340;51.402;0.016;2022-12-10T11:04:53;4.90;99.90
44775;DHT22;31340;51.402;0.016;2022-12-10T11:09:48;5.20;99.90
44775;DHT22;31340;51.402;0.016;2022-12-10T11:15:04;5.30;99.90
44775;DHT22;31340;51.402;0.016;2022-12-10T11:17:45;5.50;99.90
44775;DHT22;31340;51.402;0.016;2022-12-10T11:20:17;5.60;99.90
44775;DHT22;31340;51.402;0.016;2022-12-10T11:22:57;5.70;99.90
44775;DHT22;31340;51.402;0.016;2022-12-10T11:27:59;6.00;99.90
44775;DHT22;31340;51.402;0.016;2022-12-10T11:30:27;6.10;99.90
44775;DHT22;31340;51.402;0.016;2022-12-10T11:35:40;6.40;99.90
44775;DHT22;31340;51.402;0.016;2022-12-10T11:41:02;6.70;99.90
44775;DHT22;31340;51.402;0.016;2022-12-10T11:43:42;6.90;99.90
44775;DHT22;31340;51.402;0.016;2022-12-10T11:49:09;7.20;99.90
44775;DHT22;31340;51.402;0.016;2022-12-10T11:56:46;7.70;99.90
44775;DHT22;31340;51.402;0.016;2022-12-10T12:02:24;8.10;99.90
44775;DHT22;31340;51.402;0.016;2022-12-10T12:13:29;9.00;99.90
44775;DHT22;31340;51.402;0.016;2022-12-10T12:16:07;9.20;99.90
44775;DHT22;31340;51.402;0.016;2022-12-10T12:18:45;9.40;99.90
44775;DHT22;31340;51.402;0.016;2022-12-10T12:21:15;9.60;99.90
44775;DHT22;31340;51.402;0.016;2022-12-10T12:26:19;10.00;99.80
44775;DHT22;31340;51.402;0.016;2022-12-10T12:28:51;10.20;99.70
44775;DHT22;31340;51.402;0.016;2022-12-10T12:31:22;10.40;99.50
44775;DHT22;31340;51.402;0.016;2022-12-10T12:33:53;10.60;99.30
44775;DHT22;31340;51.402;0.016;2022-12-10T12:36:32;10.80;99.10
44775;DHT22;31340;51.402;0.016;2022-12-10T12:41:40;11.30;98.90
44775;DHT22;31340;51.402;0.016;2022-12-10T12:44:29;11.40;98.50
44775;DHT22;31340;51.402;0.016;2022-12-10T12:47:02;11.60;98.50
44775;DHT22;31340;51.402;0.016;2022-12-10T12:49:35;11.90;98.30
44775;DHT22;31340;51.402;0.016;2022-12-10T12:52:17;12.00;97.90
44775;DHT22;31340;51.402;0.016;2022-12-10T12:54:48;12.20;97.50
44775;DHT22;31340;51.402;0.016;2022-12-10T12:57:39;12.20;97.30
44775;DHT22;31340;51.402;0.016;2022-12-10T13:00:04;12.30;96.80
44775;DHT22;31340;51.402;0.016;2022-12-10T13:05:31;12.40;96.00
44775;DHT22;31340;51.402;0.016;2022-12-10T13:13:29;12.50;95.50
44775;DHT22;31340;51.402;0.016;2022-12-10T13:16:32;12.60;95.40
44775;DHT22;31340;51.402;0.016;2022-12-10T13:18:44;12.50;95.10
44775;DHT22;31340;51.402;0.016;2022-12-10T13:21:31;12.60;95.00
44775;DHT22;31340;51.402;0.016;2022-12-10T13:24:09;12.70;95.00
44775;DHT22;31340;51.402;0.016;2022-12-10T13:26:40;12.80;94.90
44775;DHT22;31340;51.402;0.016;2022-12-10T13:31:56;12.80;94.50
44775;DHT22;31340;51.402;0.016;2022-12-10T13:34:34;12.60;94.20
44775;DHT22;31340;51.402;0.016;2022-12-10T13:39:53;12.40;93.60
44775;DHT22;31340;51.402;0.016;2022-12-10T13:42:26;12.20;93.20
44775;DHT22;31340;51.402;0.016;2022-12-10T13:47:52;11.80;93.10
44775;DHT22;31340;51.402;0.016;2022-12-10T13:55:53;11.30;93.10
44775;DHT22;31340;51.402;0.016;2022-12-10T13:58:25;11.20;93.10
44775;DHT22;31340;51.402;0.016;2022-12-10T14:06:39;10.70;93.10
44775;DHT22;31340;51.402;0.016;2022-12-10T14:12:03;10.40;93.20
44775;DHT22;31340;51.402;0.016;2022-12-10T14:14:34;10.30;93.20
44775;DHT22;31340;51.402;0.016;2022-12-10T14:17:04;10.20;93.30
44775;DHT22;31340;51.402;0.016;2022-12-10T14:19:33;10.00;93.30
44775;DHT22;31340;51.402;0.016;2022-12-10T14:22:08;10.00;93.40
44775;DHT22;31340;51.402;0.016;2022-12-10T14:24:40;9.80;93.30
44775;DHT22;31340;51.402;0.016;2022-12-10T14:29:47;9.60;93.30
44775;DHT22;31340;51.402;0.016;2022-12-10T14:32:16;9.50;93.40
44775;DHT22;31340;51.402;0.016;2022-12-10T14:34:47;9.40;93.30
44775;DHT22;31340;51.402;0.016;2022-12-10T14:37:16;9.30;93.30
44775;DHT22;31340;51.402;0.016;2022-12-10T14:39:45;9.20;93.30
44775;DHT22;31340;51.402;0.016;2022-12-10T14:42:14;9.10;93.30
44775;DHT22;31340;51.402;0.016;2022-12-10T14:44:43;9.00;93.40
44775;DHT22;31340;51.402;0.016;2022-12-10T14:47:13;8.90;93.40
44775;DHT22;31340;51.402;0.016;2022-12-10T14:49:43;8.80;93.50
44775;DHT22;31340;51.402;0.016;2022-12-10T14:52:15;8.60;93.50
44775;DHT22;31340;51.402;0.016;2022-12-10T14:54:43;8.50;93.50
44775;DHT22;31340;51.402;0.016;2022-12-10T14:57:34;8.50;93.60
44775;DHT22;31340;51.402;0.016;2022-12-10T15:00:06;8.40;93.60
44775;DHT22;31340;51.402;0.016;2022-12-10T15:02:38;8.30;93.70
44775;DHT22;31340;51.402;0.016;2022-12-10T15:05:15;8.20;94.10
44775;DHT22;31340;51.402;0.016;2022-12-10T15:07:48;8.10;93.70
44775;DHT22;31340;51.402;0.016;2022-12-10T15:10:20;8.00;93.80
44775;DHT22;31340;51.402;0.016;2022-12-10T15:12:50;7.90;93.80
44775;DHT22;31340;51.402;0.016;2022-12-10T15:15:31;7.80;93.80
44775;DHT22;31340;51.402;0.016;2022-12-10T15:20:53;7.60;93.90
44775;DHT22;31340;51.402;0.016;2022-12-10T15:23:29;7.50;94.00
44775;DHT22;31340;51.402;0.016;2022-12-10T15:30:57;7.30;94.20
44775;DHT22;31340;51.402;0.016;2022-12-10T15:33:30;7.20;94.20
44775;DHT22;31340;51.402;0.016;2022-12-10T15:35:58;7.10;94.20
44775;DHT22;31340;51.402;0.016;2022-12-10T15:38:26;6.90;94.40
44775;DHT22;31340;51.402;0.016;2022-12-10T15:40:57;6.90;94.40
44775;DHT22;31340;51.402;0.016;2022-12-10T15:43:29;6.90;94.40
44775;DHT22;31340;51.402;0.016;2022-12-10T15:45:57;6.70;94.40
44775;DHT22;31340;51.402;0.016;2022-12-10T15:48:26;6.70;94.50
44775;DHT22;31340;51.402;0.016;2022-12-10T15:50:54;6.60;94.50
44775;DHT22;31340;51.402;0.016;2022-12-10T15:53:25;6.50;94.60
44775;DHT22;31340;51.402;0.016;2022-12-10T15:56:01;6.40;94.60
44775;DHT22;31340;51.402;0.016;2022-12-10T15:58:28;6.30;94.70
44775;DHT22;31340;51.402;0.016;2022-12-10T16:00:56;6.20;94.80
44775;DHT22;31340;51.402;0.016;2022-12-10T16:03:23;6.10;94.80
44775;DHT22;31340;51.402;0.016;2022-12-10T16:05:53;6.10;94.80
44775;DHT22;31340;51.402;0.016;2022-12-10T16:08:22;6.00;94.90
44775;DHT22;31340;51.402;0.016;2022-12-10T16:10:51;5.90;94.90
44775;DHT22;31340;51.402;0.016;2022-12-10T16:13:23;5.80;94.90
44775;DHT22;31340;51.402;0.016;2022-12-10T16:15:55;5.70;94.90
44775;DHT22;31340;51.402;0.016;2022-12-10T16:18:24;5.60;95.00
44775;DHT22;31340;51.402;0.016;2022-12-10T16:20:58;5.50;95.10
44775;DHT22;31340;51.402;0.016;2022-12-10T16:23:26;5.40;95.10
44775;DHT22;31340;51.402;0.016;2022-12-10T16:25:53;5.40;95.10
44775;DHT22;31340;51.402;0.016;2022-12-10T16:28:21;5.30;95.20
44775;DHT22;31340;51.402;0.016;2022-12-10T16:30:56;5.20;95.30
44775;DHT22;31340;51.402;0.016;2022-12-10T16:33:24;5.10;95.30
44775;DHT22;31340;51.402;0.016;2022-12-10T16:35:52;5.00;95.30
44775;DHT22;31340;51.402;0.016;2022-12-10T16:38:20;4.90;95.40
44775;DHT22;31340;51.402;0.016;2022-12-10T16:40:47;4.90;95.80
44775;DHT22;31340;51.402;0.016;2022-12-10T16:43:16;4.80;95.50
44775;DHT22;31340;51.402;0.016;2022-12-10T16:45:44;4.70;95.60
44775;DHT22;31340;51.402;0.016;2022-12-10T16:48:11;4.70;95.60
44775;DHT22;31340;51.402;0.016;2022-12-10T16:50:39;4.60;95.60
44775;DHT22;31340;51.402;0.016;2022-12-10T16:53:15;4.50;95.70
44775;DHT22;31340;51.402;0.016;2022-12-10T16:55:43;4.50;95.70
44775;DHT22;31340;51.402;0.016;2022-12-10T16:58:11;4.40;95.80
44775;DHT22;31340;51.402;0.016;2022-12-10T17:00:41;4.30;95.80
44775;DHT22;31340;51.402;0.016;2022-12-10T17:03:13;4.20;95.80
44775;DHT22;31340;51.402;0.016;2022-12-10T17:05:59;4.10;95.90
44775;DHT22;31340;51.402;0.016;2022-12-10T17:08:27;4.10;96.00
44775;DHT22;31340;51.402;0.016;2022-12-10T17:10:57;4.00;96.10
44775;DHT22;31340;51.402;0.016;2022-12-10T17:13:43;3.90;96.10
44775;DHT22;31340;51.402;0.016;2022-12-10T17:16:19;3.80;96.10
44775;DHT22;31340;51.402;0.016;2022-12-10T17:18:48;3.80;96.20
44775;DHT22;31340;51.402;0.016;2022-12-10T17:21:15;3.70;96.20
44775;DHT22;31340;51.402;0.016;2022-12-10T17:23:43;3.70;96.30
44775;DHT22;31340;51.402;0.016;2022-12-10T17:26:15;3.60;96.30
44775;DHT22;31340;51.402;0.016;2022-12-10T17:28:45;3.60;96.40
44775;DHT22;31340;51.402;0.016;2022-12-10T17:31:13;3.50;96.40
44775;DHT22;31340;51.402;0.016;2022-12-10T17:33:40;3.50;96.50
44775;DHT22;31340;51.402;0.016;2022-12-10T17:36:13;3.40;96.50
44775;DHT22;31340;51.402;0.016;2022-12-10T17:38:40;3.40;96.50
44775;DHT22;31340;51.402;0.016;2022-12-10T17:41:08;3.30;96.60
44775;DHT22;31340;51.402;0.016;2022-12-10T17:43:36;3.30;96.60
44775;DHT22;31340;51.402;0.016;2022-12-10T17:46:04;3.30;96.70